Time,TemperatureF,DewpointF,PressureIn,WindDirection,WindDirectionDegrees,WindSpeedMPH,WindSpeedGustMPH,Humidity,HourlyPrecipIn,Conditions,Clouds,dailyrainin,SoftwareType,DateUTC
2013-05-01 00:02:00,67.0,60.0,29.89,South,186,6.0,11.0,79,0.00,,,0.00,,2013-05-01 05:02:00,
2013-05-01 00:11:00,67.0,60.0,29.89,South,186,6.0,11.0,79,0.00,,,0.00,,2013-05-01 05:11:00,
2013-05-01 00:21:00,67.0,60.0,29.90,South,184,6.0,11.0,79,0.00,,,0.00,,2013-05-01 05:21:00,
2013-05-01 00:32:00,66.0,60.0,29.90,SSW,204,4.0,7.0,80,0.00,,,0.00,,2013-05-01 05:32:00,
2013-05-01 00:42:00,66.0,60.0,29.90,SSW,204,4.0,7.0,80,0.00,,,0.00,,2013-05-01 05:42:00,
2013-05-01 00:52:00,65.0,59.0,29.91,SSW,206,4.0,9.0,81,0.00,,,0.00,,2013-05-01 05:52:00,
2013-05-01 01:02:00,65.0,59.0,29.91,SSW,202,4.0,7.0,82,0.00,,,0.00,,2013-05-01 06:02:00,
2013-05-01 01:11:00,65.0,59.0,29.91,SSW,202,4.0,7.0,82,0.00,,,0.00,,2013-05-01 06:11:00,
2013-05-01 01:22:00,65.0,60.0,29.91,South,189,4.0,7.0,83,0.00,,,0.00,,2013-05-01 06:22:00,
2013-05-01 01:32:00,64.0,59.0,29.92,SSW,209,5.0,7.0,83,0.00,,,0.00,,2013-05-01 06:32:00,
2013-05-01 01:42:00,64.0,59.0,29.92,SSW,209,5.0,7.0,83,0.00,,,0.00,,2013-05-01 06:42:00,
2013-05-01 01:52:00,64.0,59.0,29.92,SW,216,5.0,8.0,83,0.00,,,0.00,,2013-05-01 06:52:00,
2013-05-01 02:01:00,64.0,58.0,29.92,South,191,5.0,8.0,82,0.00,,,0.00,,2013-05-01 07:01:00,
2013-05-01 02:11:00,64.0,58.0,29.92,South,191,5.0,8.0,82,0.00,,,0.00,,2013-05-01 07:11:00,
2013-05-01 02:21:00,64.0,59.0,29.92,SW,215,5.0,8.0,83,0.00,,,0.00,,2013-05-01 07:21:00,
2013-05-01 02:32:00,63.0,58.0,29.92,SSW,209,4.0,7.0,84,0.00,,,0.00,,2013-05-01 07:32:00,
2013-05-01 02:42:00,63.0,58.0,29.92,SSW,209,4.0,7.0,84,0.00,,,0.00,,2013-05-01 07:42:00,
2013-05-01 02:52:00,63.0,58.0,29.92,South,188,3.0,7.0,85,0.00,,,0.00,,2013-05-01 07:52:00,
2013-05-01 03:01:00,63.0,58.0,29.93,SSW,207,4.0,7.0,85,0.00,,,0.00,,2013-05-01 08:01:00,
2013-05-01 03:11:00,63.0,58.0,29.93,SSW,207,4.0,7.0,85,0.00,,,0.00,,2013-05-01 08:11:00,
2013-05-01 03:21:00,63.0,58.0,29.93,SSW,202,5.0,7.0,85,0.00,,,0.00,,2013-05-01 08:21:00,
2013-05-01 03:32:00,62.0,58.0,29.93,SSW,204,3.0,6.0,86,0.00,,,0.00,,2013-05-01 08:32:00,
2013-05-01 03:42:00,62.0,58.0,29.93,SSW,204,3.0,6.0,86,0.00,,,0.00,,2013-05-01 08:42:00,
2013-05-01 03:53:00,62.0,58.0,29.94,SSW,205,5.0,7.0,87,0.00,,,0.00,,2013-05-01 08:53:00,
2013-05-01 04:01:00,61.0,57.0,29.94,South,190,2.0,5.0,88,0.00,,,0.00,,2013-05-01 09:01:00,
2013-05-01 04:11:00,61.0,57.0,29.94,South,190,2.0,5.0,88,0.00,,,0.00,,2013-05-01 09:11:00,
2013-05-01 04:21:00,60.0,57.0,29.95,SSW,207,3.0,7.0,89,0.00,,,0.00,,2013-05-01 09:21:00,
2013-05-01 04:33:00,60.0,57.0,29.95,South,174,2.0,5.0,89,0.00,,,0.00,,2013-05-01 09:33:00,
2013-05-01 04:42:00,60.0,57.0,29.95,South,174,2.0,5.0,89,0.00,,,0.00,,2013-05-01 09:42:00,
2013-05-01 04:53:00,60.0,56.0,29.96,South,173,3.0,5.0,88,0.00,,,0.00,,2013-05-01 09:53:00,
2013-05-01 05:02:00,60.0,57.0,29.96,South,178,2.0,6.0,89,0.00,,,0.00,,2013-05-01 10:02:00,
2013-05-01 05:12:00,60.0,57.0,29.96,South,178,2.0,6.0,89,0.00,,,0.00,,2013-05-01 10:12:00,
2013-05-01 05:22:00,60.0,57.0,29.97,South,173,2.0,6.0,89,0.00,,,0.00,,2013-05-01 10:22:00,
2013-05-01 05:33:00,60.0,57.0,29.97,SSW,206,4.0,7.0,89,0.00,,,0.00,,2013-05-01 10:33:00,
2013-05-01 05:42:00,60.0,57.0,29.97,SSW,206,4.0,7.0,89,0.00,,,0.00,,2013-05-01 10:42:00,
2013-05-01 05:53:00,60.0,57.0,29.97,SSW,207,3.0,7.0,89,0.00,,,0.00,,2013-05-01 10:53:00,
2013-05-01 06:02:00,60.0,57.0,29.97,South,173,5.0,9.0,89,0.00,,,0.00,,2013-05-01 11:02:00,
2013-05-01 06:11:00,60.0,57.0,29.97,South,173,5.0,9.0,89,0.00,,,0.00,,2013-05-01 11:11:00,
2013-05-01 06:22:00,59.0,56.0,29.98,South,175,3.0,6.0,89,0.00,,,0.00,,2013-05-01 11:22:00,
2013-05-01 06:32:00,59.0,56.0,29.99,South,172,3.0,6.0,90,0.00,,,0.00,,2013-05-01 11:32:00,
2013-05-01 06:42:00,59.0,56.0,29.99,South,172,3.0,6.0,90,0.00,,,0.00,,2013-05-01 11:42:00,
2013-05-01 06:52:00,59.0,56.0,29.99,SSE,167,2.0,5.0,90,0.00,,,0.00,,2013-05-01 11:52:00,
2013-05-01 07:01:00,60.0,57.0,30.00,South,169,3.0,4.0,90,0.00,,,0.00,,2013-05-01 12:01:00,
2013-05-01 07:11:00,60.0,57.0,30.00,South,169,3.0,4.0,90,0.00,,,0.00,,2013-05-01 12:11:00,
2013-05-01 07:21:00,61.0,58.0,30.00,South,169,2.0,4.0,89,0.00,,,0.00,,2013-05-01 12:21:00,
2013-05-01 07:31:00,62.0,58.0,30.01,SSE,167,3.0,5.0,87,0.00,,,0.00,,2013-05-01 12:31:00,
2013-05-01 07:41:00,62.0,58.0,30.01,SSE,167,3.0,5.0,87,0.00,,,0.00,,2013-05-01 12:41:00,
2013-05-01 07:52:00,64.0,60.0,30.01,South,169,3.0,6.0,86,0.00,,,0.00,,2013-05-01 12:52:00,
2013-05-01 08:01:00,65.0,60.0,30.01,South,173,4.0,6.0,83,0.00,,,0.00,,2013-05-01 13:01:00,
2013-05-01 08:11:00,65.0,60.0,30.01,South,173,4.0,6.0,83,0.00,,,0.00,,2013-05-01 13:11:00,
2013-05-01 08:21:00,67.0,61.0,30.02,South,173,4.0,6.0,80,0.00,,,0.00,,2013-05-01 13:21:00,
2013-05-01 08:32:00,68.0,61.0,30.02,South,173,4.0,7.0,77,0.00,,,0.00,,2013-05-01 13:32:00,
2013-05-01 08:42:00,68.0,61.0,30.02,South,173,4.0,7.0,77,0.00,,,0.00,,2013-05-01 13:42:00,
2013-05-01 08:52:00,70.0,61.0,30.02,South,170,5.0,8.0,74,0.00,,,0.00,,2013-05-01 13:52:00,
2013-05-01 09:02:00,71.0,62.0,30.02,SSE,163,4.0,7.0,72,0.00,,,0.00,,2013-05-01 14:02:00,
2013-05-01 09:11:00,71.0,62.0,30.02,SSE,163,4.0,7.0,72,0.00,,,0.00,,2013-05-01 14:11:00,
2013-05-01 09:21:00,73.0,62.0,30.02,South,186,5.0,7.0,68,0.00,,,0.00,,2013-05-01 14:21:00,
2013-05-01 09:32:00,74.0,63.0,30.02,SW,220,5.0,9.0,68,0.00,,,0.00,,2013-05-01 14:32:00,
2013-05-01 09:42:00,74.0,63.0,30.02,SW,220,5.0,9.0,68,0.00,,,0.00,,2013-05-01 14:42:00,
2013-05-01 09:52:00,74.0,61.0,30.02,SW,215,5.0,8.0,65,0.00,,,0.00,,2013-05-01 14:52:00,
2013-05-01 10:01:00,75.0,63.0,30.03,South,173,4.0,8.0,66,0.00,,,0.00,,2013-05-01 15:01:00,
2013-05-01 10:11:00,75.0,63.0,30.03,South,173,4.0,8.0,66,0.00,,,0.00,,2013-05-01 15:11:00,
2013-05-01 10:21:00,75.0,61.0,30.03,SW,226,5.0,10.0,61,0.00,,,0.00,,2013-05-01 15:21:00,
2013-05-01 10:33:00,76.0,59.0,30.03,South,185,4.0,8.0,55,0.00,,,0.00,,2013-05-01 15:33:00,
2013-05-01 10:43:00,76.0,59.0,30.03,South,185,4.0,8.0,55,0.00,,,0.00,,2013-05-01 15:43:00,
2013-05-01 10:53:00,77.0,60.0,30.03,SSW,212,4.0,9.0,56,0.00,,,0.00,,2013-05-01 15:53:00,
2013-05-01 11:03:00,77.0,60.0,30.03,SSE,167,4.0,11.0,56,0.00,,,0.00,,2013-05-01 16:03:00,
2013-05-01 11:12:00,77.0,60.0,30.03,SSE,167,4.0,11.0,56,0.00,,,0.00,,2013-05-01 16:12:00,
2013-05-01 11:22:00,78.0,60.0,30.03,SSW,203,5.0,9.0,54,0.00,,,0.00,,2013-05-01 16:22:00,
2013-05-01 11:32:00,78.0,60.0,30.03,SW,232,4.0,8.0,54,0.00,,,0.00,,2013-05-01 16:32:00,
2013-05-01 11:42:00,78.0,60.0,30.03,SW,232,4.0,8.0,54,0.00,,,0.00,,2013-05-01 16:42:00,
2013-05-01 11:53:00,78.0,58.0,30.03,SSW,205,4.0,10.0,50,0.00,,,0.00,,2013-05-01 16:53:00,
2013-05-01 12:02:00,79.0,60.0,30.03,SSW,208,3.0,9.0,53,0.00,,,0.00,,2013-05-01 17:02:00,
2013-05-01 12:12:00,79.0,60.0,30.03,SSW,208,3.0,9.0,53,0.00,,,0.00,,2013-05-01 17:12:00,
2013-05-01 12:21:00,80.0,57.0,30.03,SSE,153,8.0,12.0,46,0.00,,,0.00,,2013-05-01 17:21:00,
2013-05-01 12:31:00,79.0,59.0,30.03,SW,216,6.0,11.0,50,0.00,,,0.00,,2013-05-01 17:31:00,
2013-05-01 12:42:00,79.0,59.0,30.03,SW,216,6.0,11.0,50,0.00,,,0.00,,2013-05-01 17:42:00,
2013-05-01 12:52:00,80.0,59.0,30.03,WSW,250,6.0,11.0,48,0.00,,,0.00,,2013-05-01 17:52:00,
2013-05-01 13:01:00,81.0,58.0,30.02,SE,145,5.0,12.0,45,0.00,,,0.00,,2013-05-01 18:01:00,
2013-05-01 13:11:00,81.0,58.0,30.02,SE,145,5.0,12.0,45,0.00,,,0.00,,2013-05-01 18:11:00,
2013-05-01 13:22:00,81.0,57.0,30.02,SSE,151,6.0,11.0,44,0.00,,,0.00,,2013-05-01 18:22:00,
2013-05-01 13:32:00,81.0,59.0,30.02,South,173,4.0,12.0,48,0.00,,,0.00,,2013-05-01 18:32:00,
2013-05-01 13:41:00,81.0,59.0,30.02,South,173,4.0,12.0,48,0.00,,,0.00,,2013-05-01 18:41:00,
2013-05-01 13:52:00,82.0,56.0,30.02,SSE,159,6.0,14.0,41,0.00,,,0.00,,2013-05-01 18:52:00,
2013-05-01 14:02:00,82.0,56.0,30.02,South,171,7.0,12.0,41,0.00,,,0.00,,2013-05-01 19:02:00,
2013-05-01 14:11:00,82.0,56.0,30.02,South,171,7.0,12.0,41,0.00,,,0.00,,2013-05-01 19:11:00,
2013-05-01 14:22:00,83.0,58.0,30.02,South,183,7.0,14.0,42,0.00,,,0.00,,2013-05-01 19:22:00,
2013-05-01 14:32:00,82.0,59.0,30.02,SSW,202,3.0,11.0,46,0.00,,,0.00,,2013-05-01 19:32:00,
2013-05-01 14:43:00,82.0,59.0,30.02,SSW,202,3.0,11.0,46,0.00,,,0.00,,2013-05-01 19:43:00,
2013-05-01 14:52:00,84.0,56.0,30.02,South,173,6.0,15.0,39,0.00,,,0.00,,2013-05-01 19:52:00,
2013-05-01 15:01:00,83.0,57.0,30.02,SE,144,8.0,13.0,41,0.00,,,0.00,,2013-05-01 20:01:00,
2013-05-01 15:11:00,83.0,57.0,30.02,SE,144,8.0,13.0,41,0.00,,,0.00,,2013-05-01 20:11:00,
2013-05-01 15:21:00,83.0,57.0,30.02,South,181,5.0,11.0,41,0.00,,,0.00,,2013-05-01 20:21:00,
2013-05-01 15:32:00,83.0,55.0,30.02,SSE,168,6.0,12.0,38,0.00,,,0.00,,2013-05-01 20:32:00,
2013-05-01 15:42:00,83.0,55.0,30.02,SSE,168,6.0,12.0,38,0.00,,,0.00,,2013-05-01 20:42:00,
2013-05-01 15:52:00,83.0,56.0,30.02,SSW,207,6.0,13.0,40,0.00,,,0.00,,2013-05-01 20:52:00,
2013-05-01 16:01:00,83.0,57.0,30.02,SE,142,5.0,14.0,41,0.00,,,0.00,,2013-05-01 21:01:00,
2013-05-01 16:11:00,83.0,57.0,30.02,SE,142,5.0,14.0,41,0.00,,,0.00,,2013-05-01 21:11:00,
2013-05-01 16:22:00,84.0,53.0,30.02,SSE,159,7.0,12.0,35,0.00,,,0.00,,2013-05-01 21:22:00,
2013-05-01 16:32:00,84.0,54.0,30.02,SSE,155,8.0,13.0,36,0.00,,,0.00,,2013-05-01 21:32:00,
2013-05-01 16:43:00,84.0,54.0,30.02,SSE,155,8.0,13.0,36,0.00,,,0.00,,2013-05-01 21:43:00,
2013-05-01 16:53:00,84.0,58.0,30.02,South,175,8.0,13.0,41,0.00,,,0.00,,2013-05-01 21:53:00,
2013-05-01 17:03:00,83.0,55.0,30.02,SSW,207,7.0,12.0,39,0.00,,,0.00,,2013-05-01 22:03:00,
2013-05-01 17:12:00,83.0,55.0,30.02,SSW,207,7.0,12.0,39,0.00,,,0.00,,2013-05-01 22:12:00,
2013-05-01 17:23:00,83.0,55.0,30.02,South,176,8.0,14.0,39,0.00,,,0.00,,2013-05-01 22:23:00,
2013-05-01 17:33:00,83.0,55.0,30.02,SSE,166,7.0,15.0,38,0.00,,,0.00,,2013-05-01 22:33:00,
2013-05-01 17:42:00,83.0,55.0,30.02,SSE,166,7.0,15.0,38,0.00,,,0.00,,2013-05-01 22:42:00,
2013-05-01 17:53:00,82.0,55.0,30.02,SE,138,8.0,12.0,39,0.00,,,0.00,,2013-05-01 22:53:00,
2013-05-01 18:02:00,82.0,56.0,30.01,SSE,159,8.0,17.0,41,0.00,,,0.00,,2013-05-01 23:02:00,
2013-05-01 18:12:00,82.0,56.0,30.01,SSE,159,8.0,17.0,41,0.00,,,0.00,,2013-05-01 23:12:00,
2013-05-01 18:21:00,82.0,55.0,30.01,South,171,8.0,12.0,40,0.00,,,0.00,,2013-05-01 23:21:00,
2013-05-01 18:32:00,81.0,54.0,30.01,South,174,8.0,11.0,39,0.00,,,0.00,,2013-05-01 23:32:00,
2013-05-01 18:42:00,81.0,54.0,30.01,South,174,8.0,11.0,39,0.00,,,0.00,,2013-05-01 23:42:00,
2013-05-01 18:52:00,81.0,56.0,30.01,South,173,8.0,11.0,42,0.00,,,0.00,,2013-05-01 23:52:00,
2013-05-01 19:01:00,80.0,56.0,30.02,SSE,161,6.0,10.0,44,0.00,,,0.00,,2013-05-02 00:01:00,
2013-05-01 19:11:00,80.0,56.0,30.02,SSE,161,6.0,10.0,44,0.00,,,0.00,,2013-05-02 00:11:00,
2013-05-01 19:21:00,79.0,56.0,30.02,South,173,5.0,8.0,46,0.00,,,0.00,,2013-05-02 00:21:00,
2013-05-01 19:32:00,78.0,58.0,30.03,SSE,161,4.0,8.0,50,0.00,,,0.00,,2013-05-02 00:32:00,
2013-05-01 19:41:00,78.0,58.0,30.03,SSE,161,4.0,8.0,50,0.00,,,0.00,,2013-05-02 00:41:00,
2013-05-01 19:52:00,76.0,58.0,30.03,SSE,165,4.0,8.0,54,0.00,,,0.00,,2013-05-02 00:52:00,
2013-05-01 20:01:00,74.0,58.0,30.03,South,171,3.0,6.0,58,0.00,,,0.00,,2013-05-02 01:01:00,
2013-05-01 20:11:00,74.0,58.0,30.03,South,171,3.0,6.0,58,0.00,,,0.00,,2013-05-02 01:11:00,
2013-05-01 20:21:00,73.0,59.0,30.04,South,171,3.0,6.0,61,0.00,,,0.00,,2013-05-02 01:21:00,
2013-05-01 20:32:00,71.0,58.0,30.04,South,171,3.0,4.0,63,0.00,,,0.00,,2013-05-02 01:32:00,
2013-05-01 20:42:00,71.0,58.0,30.04,South,171,3.0,4.0,63,0.00,,,0.00,,2013-05-02 01:42:00,
2013-05-01 20:52:00,70.0,58.0,30.05,South,171,2.0,4.0,65,0.00,,,0.00,,2013-05-02 01:52:00,
2013-05-01 21:02:00,69.0,58.0,30.05,South,171,2.0,4.0,67,0.00,,,0.00,,2013-05-02 02:02:00,
2013-05-01 21:12:00,69.0,58.0,30.05,South,171,2.0,4.0,67,0.00,,,0.00,,2013-05-02 02:12:00,
2013-05-01 21:21:00,68.0,57.0,30.05,SSE,151,2.0,5.0,69,0.00,,,0.00,,2013-05-02 02:21:00,
2013-05-01 21:32:00,67.0,57.0,30.06,SSE,151,2.0,3.0,71,0.00,,,0.00,,2013-05-02 02:32:00,
2013-05-01 21:42:00,67.0,57.0,30.06,SSE,151,2.0,3.0,71,0.00,,,0.00,,2013-05-02 02:42:00,
2013-05-01 21:51:00,67.0,57.0,30.06,SSE,151,2.0,3.0,71,0.00,,,0.00,,2013-05-02 02:51:00,
2013-05-01 22:01:00,66.0,57.0,30.06,SSE,151,1.0,4.0,73,0.00,,,0.00,,2013-05-02 03:01:00,
2013-05-01 22:11:00,66.0,57.0,30.06,SSE,151,1.0,4.0,73,0.00,,,0.00,,2013-05-02 03:11:00,
2013-05-01 22:22:00,66.0,57.0,30.06,SSE,151,2.0,4.0,74,0.00,,,0.00,,2013-05-02 03:22:00,
2013-05-01 22:32:00,66.0,57.0,30.06,SSE,151,2.0,3.0,74,0.00,,,0.00,,2013-05-02 03:32:00,
2013-05-01 22:42:00,66.0,57.0,30.06,SSE,151,2.0,3.0,74,0.00,,,0.00,,2013-05-02 03:42:00,
2013-05-01 22:53:00,66.0,58.0,30.06,SSE,151,2.0,4.0,75,0.00,,,0.00,,2013-05-02 03:53:00,
2013-05-01 23:03:00,65.0,57.0,30.06,SSE,151,2.0,3.0,76,0.00,,,0.00,,2013-05-02 04:03:00,
2013-05-01 23:12:00,65.0,57.0,30.06,SSE,151,2.0,3.0,76,0.00,,,0.00,,2013-05-02 04:12:00,
2013-05-01 23:23:00,65.0,58.0,30.06,SSE,151,2.0,3.0,77,0.00,,,0.00,,2013-05-02 04:23:00,
2013-05-01 23:33:00,65.0,58.0,30.06,SSE,151,1.0,3.0,77,0.00,,,0.00,,2013-05-02 04:33:00,
2013-05-01 23:42:00,65.0,58.0,30.06,SSE,151,1.0,3.0,77,0.00,,,0.00,,2013-05-02 04:42:00,
2013-05-01 23:52:00,65.0,57.0,30.06,SSE,167,2.0,4.0,75,0.00,,,0.00,,2013-05-02 04:52:00,